Time;durP1;ratioP1;P1;durP2;ratioP2;P2;SDS_P1;SDS_P2;PMS_P1;PMS_P2;Temp;Humidity;BMP_temperature;BMP_pressure;BME280_temperature;BME280_humidity;BME280_pressure;Samples;Min_cycle;Max_cycle;Signal;HPM_P1;HPM_P2
2024/01/06 00:01:14;;;;;;;4.57;3.40;;;8.60;45.20;;;;;;5035514;28;20571;-46
2024/01/06 00:03:40;;;;;;;2.60;1.60;;;8.60;45.60;;;;;;5035380;28;20586;-50
2024/01/06 00:06:06;;;;;;;4.30;3.10;;;8.60;45.80;;;;;;5035360;28;20174;-46
2024/01/06 00:08:32;;;;;;;1.30;1.20;;;8.70;45.60;;;;;;5035595;28;20543;-45
2024/01/06 00:10:57;;;;;;;3.33;3.10;;;8.70;45.60;;;;;;5035195;28;20416;-52
2024/01/06 00:13:23;;;;;;;1.73;1.13;;;8.70;45.50;;;;;;5035454;28;20179;-48
2024/01/06 00:15:49;;;;;;;4.23;3.30;;;8.80;45.40;;;;;;5035251;28;20713;-46
2024/01/06 00:18:15;;;;;;;4.50;3.50;;;8.80;45.40;;;;;;5035263;28;20170;-48
2024/01/06 00:20:40;;;;;;;1.73;1.13;;;8.70;44.80;;;;;;5035038;28;20588;-51
2024/01/06 00:23:06;;;;;;;3.50;2.97;;;8.60;44.40;;;;;;5035126;28;20528;-45
2024/01/06 00:25:32;;;;;;;2.50;1.13;;;8.60;44.50;;;;;;5035282;28;20175;-47
2024/01/06 00:27:57;;;;;;;1.90;1.80;;;8.50;44.70;;;;;;5035146;28;20174;-48
2024/01/06 00:30:23;;;;;;;3.73;3.43;;;8.50;45.10;;;;;;5034909;28;20248;-45
2024/01/06 00:32:49;;;;;;;1.42;1.33;;;8.40;45.10;;;;;;5034831;28;20178;-46
2024/01/06 00:35:15;;;;;;;3.40;2.45;;;8.40;45.60;;;;;;5034916;28;20528;-48
2024/01/06 00:37:41;;;;;;;2.07;1.93;;;8.40;45.60;;;;;;5035098;28;20646;-49
2024/01/06 00:40:07;;;;;;;1.83;1.30;;;8.50;45.60;;;;;;5034375;28;20209;-48
2024/01/06 00:42:33;;;;;;;8.70;3.88;;;8.50;45.50;;;;;;5034753;28;20178;-48
2024/01/06 00:44:58;;;;;;;6.87;3.57;;;8.60;45.20;;;;;;5034719;28;20232;-47
2024/01/06 00:47:24;;;;;;;2.30;1.87;;;8.50;45.00;;;;;;5034698;28;20180;-47
2024/01/06 00:49:50;;;;;;;5.40;2.27;;;8.50;44.80;;;;;;5034629;28;20201;-50
2024/01/06 00:52:16;;;;;;;3.83;2.60;;;8.50;44.80;;;;;;5034639;28;20170;-45
2024/01/06 00:54:42;;;;;;;5.17;4.87;;;8.50;45.10;;;;;;5034618;28;20185;-47
2024/01/06 00:57:08;;;;;;;2.17;0.93;;;8.50;45.10;;;;;;5033725;28;20182;-49
2024/01/06 00:59:34;;;;;;;3.78;2.15;;;8.40;44.70;;;;;;5034148;28;20271;-46
2024/01/06 01:01:59;;;;;;;1.20;1.10;;;8.40;44.50;;;;;;5034288;28;20593;-47
2024/01/06 01:04:25;;;;;;;1.80;1.70;;;8.40;44.40;;;;;;5034300;28;20875;-50
2024/01/06 01:06:51;;;;;;;2.07;1.70;;;8.40;44.40;;;;;;5034470;28;20174;-45
2024/01/06 01:09:16;;;;;;;1.80;1.70;;;8.30;44.10;;;;;;5034113;28;20229;-48
2024/01/06 01:11:42;;;;;;;3.08;2.55;;;8.20;44.00;;;;;;5034307;28;20212;-46
2024/01/06 01:14:08;;;;;;;1.70;1.47;;;8.10;44.20;;;;;;5034195;28;20196;-47
2024/01/06 01:16:34;;;;;;;1.67;1.57;;;8.10;44.30;;;;;;5034128;28;20409;-50
2024/01/06 01:19:01;;;;;;;2.00;1.90;;;8.00;43.80;;;;;;5033776;28;20204;-45
2024/01/06 01:21:27;;;;;;;1.30;1.20;;;7.90;44.00;;;;;;5034334;28;20259;-51
2024/01/06 01:23:53;;;;;;;4.72;1.73;;;7.90;44.10;;;;;;5034036;28;20170;-50
2024/01/06 01:26:19;;;;;;;2.67;1.60;;;7.80;44.00;;;;;;5034038;28;20185;-47
2024/01/06 01:28:45;;;;;;;3.10;2.87;;;7.80;44.00;;;;;;5033705;28;20741;-47
2024/01/06 01:31:11;;;;;;;1.00;0.70;;;7.80;44.00;;;;;;5006149;28;20179;-49
2024/01/06 01:33:37;;;;;;;3.95;1.45;;;7.80;44.10;;;;;;5014165;28;20179;-47
2024/01/06 01:36:03;;;;;;;2.23;2.03;;;7.80;44.10;;;;;;4996543;28;20185;-48
2024/01/06 01:38:29;;;;;;;1.30;0.80;;;7.70;43.80;;;;;;5020099;28;20643;-48
2024/01/06 01:40:54;;;;;;;1.77;1.23;;;7.70;43.80;;;;;;5034178;28;20488;-45
2024/01/06 01:43:21;;;;;;;2.80;2.60;;;7.60;43.70;;;;;;5034653;28;20166;-48
2024/01/06 01:45:54;;;;;;;6.10;1.85;;;7.50;43.50;;;;;;5033750;28;20174;-48
2024/01/06 01:48:20;;;;;;;1.60;1.50;;;7.40;43.60;;;;;;5033893;28;20182;-46
2024/01/06 01:50:47;;;;;;;1.63;1.40;;;7.30;43.90;;;;;;5033313;28;20194;-46
2024/01/06 01:53:13;;;;;;;2.33;2.13;;;7.30;43.90;;;;;;5033602;28;20550;-50
2024/01/06 01:55:42;;;;;;;0.90;0.50;;;7.30;43.80;;;;;;5033572;28;20281;-51
2024/01/06 01:58:09;;;;;;;3.60;1.85;;;7.30;43.90;;;;;;5033394;28;20189;-46
2024/01/06 02:00:34;;;;;;;1.15;0.63;;;7.30;44.00;;;;;;5033219;28;20664;-51
2024/01/06 02:03:03;;;;;;;0.97;0.57;;;7.30;44.00;;;;;;5033282;28;20189;-50
2024/01/06 02:05:28;;;;;;;1.05;0.85;;;7.30;43.90;;;;;;5033255;28;20178;-46
2024/01/06 02:07:54;;;;;;;3.70;2.43;;;7.20;43.70;;;;;;5014682;28;20181;-47
2024/01/06 02:10:20;;;;;;;1.60;1.38;;;7.20;43.60;;;;;;5013137;28;20718;-47
2024/01/06 02:12:46;;;;;;;1.30;1.20;;;7.20;43.80;;;;;;5013229;28;20212;-49
2024/01/06 02:15:12;;;;;;;3.47;1.40;;;7.20;43.60;;;;;;5013357;28;20471;-47
2024/01/06 02:17:39;;;;;;;11.95;2.42;;;7.20;43.70;;;;;;5013352;28;20209;-46
2024/01/06 02:20:07;;;;;;;1.20;0.97;;;7.20;43.50;;;;;;5012821;28;20211;-50
2024/01/06 02:22:34;;;;;;;1.60;1.50;;;7.10;43.50;;;;;;5027769;28;20413;-46
2024/01/06 02:25:00;;;;;;;4.82;1.55;;;7.10;43.70;;;;;;5032717;28;20258;-50
2024/01/06 02:27:26;;;;;;;1.63;0.70;;;7.00;43.40;;;;;;5032799;28;20252;-46
2024/01/06 02:29:51;;;;;;;1.98;1.52;;;6.90;43.60;;;;;;5032858;28;20432;-45
2024/01/06 02:32:17;;;;;;;0.90;0.70;;;6.90;43.90;;;;;;5032915;28;20177;-50
2024/01/06 02:34:43;;;;;;;1.40;1.23;;;6.90;44.00;;;;;;5032588;28;20189;-51
2024/01/06 02:37:08;;;;;;;1.50;1.07;;;6.90;43.90;;;;;;5032678;28;20180;-46
2024/01/06 02:39:34;;;;;;;1.00;0.80;;;6.80;43.60;;;;;;5032119;28;20626;-48
2024/01/06 02:42:00;;;;;;;1.67;1.23;;;6.80;43.80;;;;;;5032444;28;20181;-48
2024/01/06 02:44:26;;;;;;;1.50;1.23;;;6.70;43.90;;;;;;5032470;28;20166;-44
2024/01/06 02:46:52;;;;;;;1.17;0.82;;;6.70;44.00;;;;;;5032619;28;20178;-48
2024/01/06 02:49:17;;;;;;;1.40;1.30;;;6.80;43.90;;;;;;5032342;28;20209;-49
2024/01/06 02:51:43;;;;;;;1.53;0.80;;;6.80;43.90;;;;;;5032381;28;20651;-47
2024/01/06 02:54:09;;;;;;;1.27;1.07;;;6.70;43.70;;;;;;5032211;28;20681;-48
2024/01/06 02:56:34;;;;;;;6.33;2.10;;;6.80;43.70;;;;;;5032278;28;20177;-49
2024/01/06 02:59:00;;;;;;;1.00;0.60;;;6.70;43.70;;;;;;5031863;28;20202;-45
2024/01/06 03:01:26;;;;;;;2.60;1.77;;;6.70;43.70;;;;;;5032398;28;20261;-50
2024/01/06 03:03:52;;;;;;;1.37;1.07;;;6.70;43.50;;;;;;5014355;28;20184;-49
2024/01/06 03:06:17;;;;;;;5.03;1.80;;;6.70;43.70;;;;;;5032334;28;20228;-46
2024/01/06 03:08:43;;;;;;;1.53;1.43;;;6.70;43.50;;;;;;5031978;28;20234;-46
2024/01/06 03:11:10;;;;;;;1.40;1.03;;;6.60;43.50;;;;;;5032200;28;20504;-50
2024/01/06 03:13:36;;;;;;;1.45;1.35;;;6.60;43.50;;;;;;5031930;28;20174;-50
2024/01/06 03:16:07;;;;;;;1.50;1.40;;;6.60;43.40;;;;;;5031992;28;20186;-46
2024/01/06 03:18:33;;;;;;;1.40;1.30;;;6.50;43.30;;;;;;5031801;28;20201;-48
2024/01/06 03:20:58;;;;;;;1.10;0.97;;;6.50;43.60;;;;;;5031408;28;20233;-46
2024/01/06 03:23:24;;;;;;;1.83;1.53;;;6.40;43.70;;;;;;5032063;28;20177;-46
2024/01/06 03:25:50;;;;;;;2.50;1.63;;;6.40;43.60;;;;;;5031786;28;20205;-51
2024/01/06 03:28:15;;;;;;;1.95;0.95;;;6.40;43.60;;;;;;5031895;28;20272;-45
2024/01/06 03:30:41;;;;;;;1.73;1.63;;;6.40;43.60;;;;;;5031795;28;20202;-47
2024/01/06 03:33:07;;;;;;;4.50;2.10;;;6.40;43.40;;;;;;5031931;28;20189;-50
2024/01/06 03:35:32;;;;;;;2.93;1.90;;;6.40;43.60;;;;;;5031823;28;20231;-51
2024/01/06 03:37:58;;;;;;;1.10;0.93;;;6.40;43.80;;;;;;5031691;28;20587;-46
2024/01/06 03:40:24;;;;;;;1.87;1.43;;;6.30;43.80;;;;;;5031290;28;20675;-48
2024/01/06 03:42:50;;;;;;;2.07;1.53;;;6.40;43.70;;;;;;5023338;28;20167;-48
2024/01/06 03:45:15;;;;;;;2.90;1.53;;;6.40;43.50;;;;;;5012051;28;20175;-44
2024/01/06 03:47:41;;;;;;;1.20;1.07;;;6.40;43.60;;;;;;5011999;28;20269;-51
2024/01/06 03:50:07;;;;;;;1.57;1.20;;;6.40;43.60;;;;;;5011774;28;20409;-46
2024/01/06 03:52:33;;;;;;;1.88;1.15;;;6.40;43.60;;;;;;4994311;28;20637;-45
2024/01/06 03:54:59;;;;;;;1.17;1.07;;;6.40;43.60;;;;;;5011641;28;20182;-49
2024/01/06 03:57:24;;;;;;;2.40;1.53;;;6.40;43.50;;;;;;5011885;28;20186;-50
2024/01/06 03:59:50;;;;;;;3.73;2.77;;;6.40;43.40;;;;;;5011604;28;20206;-46
2024/01/06 04:02:16;;;;;;;1.00;0.67;;;6.40;43.40;;;;;;5011902;28;20178;-46
2024/01/06 04:04:41;;;;;;;1.83;1.13;;;6.30;43.40;;;;;;5011749;28;20233;-49
2024/01/06 04:07:07;;;;;;;2.03;1.93;;;6.30;43.30;;;;;;5011708;28;20183;-48
2024/01/06 04:09:33;;;;;;;1.97;1.80;;;6.20;43.30;;;;;;5011630;28;20566;-46
2024/01/06 04:12:00;;;;;;;1.10;0.80;;;6.20;43.50;;;;;;5011758;28;20989;-51
2024/01/06 04:14:26;;;;;;;1.70;1.58;;;6.20;44.40;;;;;;5011908;28;20195;-44
2024/01/06 04:16:52;;;;;;;1.73;1.53;;;6.20;43.60;;;;;;5011745;28;20183;-48
2024/01/06 04:19:20;;;;;;;1.30;0.70;;;6.20;43.20;;;;;;5011370;28;20206;-49
2024/01/06 04:21:47;;;;;;;2.35;1.25;;;6.10;43.50;;;;;;5011663;28;20209;-47
2024/01/06 04:24:13;;;;;;;2.58;2.38;;;6.10;43.60;;;;;;5011508;28;20664;-48
2024/01/06 04:26:38;;;;;;;2.03;1.80;;;6.10;43.90;;;;;;5011805;28;20179;-48
2024/01/06 04:29:04;;;;;;;1.07;0.97;;;6.10;43.80;;;;;;5011520;28;20203;-44
2024/01/06 04:31:30;;;;;;;1.23;0.80;;;6.10;43.60;;;;;;5012771;28;20561;-46
2024/01/06 04:33:56;;;;;;;2.70;1.27;;;6.10;43.60;;;;;;5015319;28;20202;-51
2024/01/06 04:36:21;;;;;;;1.87;1.20;;;6.10;43.20;;;;;;5015344;28;20459;-45
2024/01/06 04:38:47;;;;;;;2.20;1.90;;;6.00;43.30;;;;;;4997185;28;20211;-50
2024/01/06 04:41:13;;;;;;;6.18;2.08;;;5.90;43.40;;;;;;5014989;28;20261;-46
2024/01/06 04:43:38;;;;;;;4.30;3.00;;;5.80;43.70;;;;;;5015220;28;20171;-46
2024/01/06 04:46:04;;;;;;;1.13;0.97;;;5.90;44.00;;;;;;5015132;28;20182;-51
2024/01/06 04:48:30;;;;;;;2.70;2.50;;;5.90;43.90;;;;;;5015111;28;20177;-45
2024/01/06 04:50:56;;;;;;;2.40;2.20;;;5.90;43.80;;;;;;5014679;28;20178;-45
2024/01/06 04:53:21;;;;;;;2.17;1.60;;;5.90;43.90;;;;;;5014806;28;20641;-48
2024/01/06 04:55:47;;;;;;;2.37;2.17;;;5.90;43.90;;;;;;5014811;28;20537;-49
2024/01/06 04:58:13;;;;;;;1.93;0.90;;;5.90;43.80;;;;;;5014972;28;20257;-46
2024/01/06 05:00:39;;;;;;;1.70;0.63;;;5.90;43.70;;;;;;5014545;28;20568;-50
2024/01/06 05:03:05;;;;;;;1.35;1.25;;;6.00;43.80;;;;;;5014636;28;20823;-45
2024/01/06 05:05:31;;;;;;;1.27;1.03;;;6.00;43.80;;;;;;5014715;28;20179;-52
2024/01/06 05:07:58;;;;;;;1.70;1.53;;;6.00;44.00;;;;;;5014445;28;20179;-47
2024/01/06 05:10:23;;;;;;;3.45;1.80;;;6.00;43.90;;;;;;5014445;28;20619;-46
2024/01/06 05:12:49;;;;;;;3.23;1.30;;;6.00;44.10;;;;;;5014803;28;20175;-49
2024/01/06 05:15:15;;;;;;;2.37;2.17;;;6.10;44.30;;;;;;5014737;28;20209;-46
2024/01/06 05:17:40;;;;;;;1.00;0.90;;;6.20;44.20;;;;;;5014748;28;20642;-49
2024/01/06 05:20:07;;;;;;;3.07;1.03;;;6.20;44.20;;;;;;5014169;28;20208;-46
2024/01/06 05:22:33;;;;;;;1.52;1.42;;;6.30;44.40;;;;;;5014367;28;20260;-48
2024/01/06 05:24:59;;;;;;;2.30;1.03;;;6.30;44.40;;;;;;5014140;28;20213;-47
2024/01/06 05:27:24;;;;;;;1.47;0.97;;;6.30;44.40;;;;;;5014515;28;20171;-46
2024/01/06 05:29:51;;;;;;;1.90;1.23;;;6.40;44.30;;;;;;5014319;28;20242;-47
2024/01/06 05:32:17;;;;;;;0.95;0.68;;;6.40;44.40;;;;;;5014256;28;20244;-50
2024/01/06 05:34:44;;;;;;;0.80;0.40;;;6.50;44.40;;;;;;5014070;28;20594;-46
2024/01/06 05:37:10;;;;;;;1.25;1.15;;;6.50;44.50;;;;;;5013856;28;20195;-48
2024/01/06 05:39:38;;;;;;;2.70;1.70;;;6.50;44.50;;;;;;5013610;28;20237;-52
2024/01/06 05:42:04;;;;;;;8.68;1.63;;;6.60;44.60;;;;;;5013902;28;20194;-46
2024/01/06 05:44:30;;;;;;;1.63;1.23;;;6.60;44.60;;;;;;5013910;28;20297;-51
2024/01/06 05:46:55;;;;;;;2.40;1.73;;;6.70;44.70;;;;;;5013961;28;20170;-45
2024/01/06 05:49:21;;;;;;;0.90;0.63;;;6.70;44.70;;;;;;4996008;28;20198;-46
2024/01/06 05:51:47;;;;;;;1.33;0.80;;;6.80;44.80;;;;;;5013704;28;20753;-48
2024/01/06 05:54:13;;;;;;;0.80;0.30;;;6.80;44.70;;;;;;5013720;28;20273;-46
2024/01/06 05:56:39;;;;;;;4.32;1.65;;;6.90;44.70;;;;;;5013681;28;20645;-50
2024/01/06 05:59:05;;;;;;;1.80;1.33;;;6.90;44.70;;;;;;5013287;28;20207;-47
2024/01/06 06:01:30;;;;;;;3.57;2.00;;;6.90;44.70;;;;;;5013644;28;20180;-45
2024/01/06 06:03:56;;;;;;;3.07;2.13;;;6.80;44.70;;;;;;5013415;28;20166;-49
2024/01/06 06:06:22;;;;;;;1.57;0.80;;;6.90;44.90;;;;;;5013419;28;20181;-50
2024/01/06 06:08:48;;;;;;;5.23;1.07;;;6.90;44.90;;;;;;5013275;28;20625;-46
2024/01/06 06:11:14;;;;;;;2.67;2.47;;;7.00;44.80;;;;;;5013492;28;20206;-49
2024/01/06 06:13:43;;;;;;;2.80;2.60;;;7.00;45.00;;;;;;5013393;28;20203;-44
2024/01/06 06:16:12;;;;;;;2.47;1.40;;;7.00;45.00;;;;;;5013296;28;20488;-49
2024/01/06 06:18:38;;;;;;;1.10;0.77;;;7.00;44.90;;;;;;5013274;28;20191;-46
2024/01/06 06:21:04;;;;;;;13.27;4.00;;;7.00;45.00;;;;;;5013392;28;20198;-46
2024/01/06 06:23:33;;;;;;;2.75;2.55;;;7.10;45.00;;;;;;5013774;28;20649;-50
2024/01/06 06:25:59;;;;;;;2.88;1.70;;;7.10;45.00;;;;;;5013731;28;20225;-50
2024/01/06 06:28:26;;;;;;;2.45;1.27;;;7.10;45.00;;;;;;5013737;28;20706;-46
2024/01/06 06:30:52;;;;;;;1.38;0.77;;;7.00;45.00;;;;;;5012799;28;20187;-50
2024/01/06 06:33:17;;;;;;;3.33;1.87;;;7.00;45.10;;;;;;4995627;28;20190;-51
2024/01/06 06:35:43;;;;;;;1.20;0.80;;;7.10;45.10;;;;;;5013200;28;20175;-46
2024/01/06 06:38:09;;;;;;;4.37;1.53;;;7.10;45.10;;;;;;5013100;28;20545;-50
2024/01/06 06:40:34;;;;;;;1.90;1.70;;;7.10;45.20;;;;;;5012533;28;20363;-46
2024/01/06 06:43:00;;;;;;;8.20;2.47;;;7.10;45.20;;;;;;5012737;28;20175;-46
2024/01/06 06:45:26;;;;;;;2.00;1.73;;;7.20;45.20;;;;;;5012836;28;20468;-51
2024/01/06 06:47:52;;;;;;;1.00;0.77;;;7.20;45.20;;;;;;5012583;28;20170;-52
2024/01/06 06:50:18;;;;;;;3.10;1.73;;;7.20;45.10;;;;;;5016444;28;20288;-44
2024/01/06 06:52:44;;;;;;;1.57;1.37;;;7.30;45.20;;;;;;5032507;28;20667;-48
2024/01/06 06:55:10;;;;;;;3.17;2.85;;;7.30;45.30;;;;;;5014155;28;20518;-47
2024/01/06 06:57:36;;;;;;;1.80;1.40;;;7.30;45.50;;;;;;5032284;28;20659;-48
2024/01/06 07:00:02;;;;;;;2.00;1.17;;;7.30;45.40;;;;;;5031902;28;20202;-49
2024/01/06 07:02:28;;;;;;;2.35;2.15;;;7.30;45.40;;;;;;5032117;28;20248;-47
2024/01/06 07:04:54;;;;;;;2.10;1.90;;;7.30;45.30;;;;;;5032072;28;20213;-48
2024/01/06 07:07:19;;;;;;;2.77;2.57;;;7.40;45.30;;;;;;5032280;28;20170;-47
2024/01/06 07:09:46;;;;;;;10.75;1.20;;;7.40;45.20;;;;;;5032036;28;20198;-47
2024/01/06 07:12:11;;;;;;;1.60;1.37;;;7.30;45.30;;;;;;5032100;28;20174;-49
2024/01/06 07:14:37;;;;;;;2.60;2.40;;;7.30;45.50;;;;;;5032091;28;20811;-51
2024/01/06 07:17:04;;;;;;;3.80;1.90;;;7.40;45.30;;;;;;5031923;28;20178;-47
2024/01/06 07:19:32;;;;;;;3.20;1.75;;;7.40;45.40;;;;;;5031857;28;20549;-48
2024/01/06 07:21:58;;;;;;;1.38;0.95;;;7.40;45.40;;;;;;5031806;28;20679;-52
2024/01/06 07:24:24;;;;;;;1.40;1.30;;;7.40;45.50;;;;;;5031868;28;20177;-47
2024/01/06 07:26:50;;;;;;;3.15;1.35;;;7.40;45.40;;;;;;5031994;28;20170;-50
2024/01/06 07:29:16;;;;;;;1.63;1.50;;;7.40;45.40;;;;;;5031672;28;20335;-45
2024/01/06 07:31:41;;;;;;;6.33;2.27;;;7.50;45.50;;;;;;5031796;28;20227;-51
2024/01/06 07:34:07;;;;;;;1.40;1.17;;;7.50;45.50;;;;;;5031749;28;20235;-46
2024/01/06 07:36:33;;;;;;;3.57;2.73;;;7.50;45.40;;;;;;5031965;28;20177;-53
2024/01/06 07:38:58;;;;;;;1.30;0.90;;;7.50;45.40;;;;;;5031289;28;20213;-50
2024/01/06 07:41:24;;;;;;;2.33;1.80;;;7.50;45.50;;;;;;5031727;28;20202;-47
2024/01/06 07:43:50;;;;;;;1.60;0.70;;;7.60;45.60;;;;;;5031766;28;20185;-52
2024/01/06 07:46:16;;;;;;;3.43;2.20;;;7.60;45.60;;;;;;5031575;28;20717;-51
2024/01/06 07:48:42;;;;;;;2.17;1.90;;;7.60;45.80;;;;;;5031355;28;20661;-47
2024/01/06 07:51:08;;;;;;;3.05;2.85;;;7.60;45.70;;;;;;5031783;28;20190;-47
2024/01/06 07:53:33;;;;;;;3.00;1.67;;;7.60;45.70;;;;;;5031819;28;20186;-51
2024/01/06 07:55:59;;;;;;;2.60;1.80;;;7.60;45.80;;;;;;5031488;28;20178;-51
2024/01/06 07:58:25;;;;;;;1.63;1.47;;;7.70;45.80;;;;;;5031658;28;20260;-48
2024/01/06 08:00:51;;;;;;;5.85;2.40;;;7.70;45.80;;;;;;5031220;28;20449;-46
2024/01/06 08:03:17;;;;;;;11.80;4.37;;;7.70;45.80;;;;;;5031706;28;20171;-45
2024/01/06 08:05:42;;;;;;;1.10;0.90;;;7.70;45.80;;;;;;5031583;28;20177;-51
2024/01/06 08:08:08;;;;;;;3.37;2.17;;;7.70;45.90;;;;;;5035556;28;20181;-45
2024/01/06 08:10:34;;;;;;;2.50;1.80;;;7.70;45.90;;;;;;5035323;28;20213;-48
2024/01/06 08:13:00;;;;;;;3.33;2.70;;;7.70;46.10;;;;;;5035318;28;20459;-50
2024/01/06 08:15:25;;;;;;;2.92;1.38;;;7.70;46.10;;;;;;5035237;28;20185;-46
2024/01/06 08:17:51;;;;;;;2.80;2.60;;;7.80;46.30;;;;;;5035530;28;20181;-52
2024/01/06 08:20:17;;;;;;;2.07;1.40;;;7.80;46.30;;;;;;5035150;28;20260;-50
2024/01/06 08:22:43;;;;;;;2.93;2.60;;;7.80;46.30;;;;;;5035380;28;20170;-44
2024/01/06 08:25:10;;;;;;;2.53;2.33;;;7.90;46.30;;;;;;5035032;28;20445;-53
2024/01/06 08:27:36;;;;;;;3.13;2.20;;;8.00;46.30;;;;;;5035216;28;20198;-51
2024/01/06 08:30:02;;;;;;;2.33;1.20;;;8.00;46.60;;;;;;5034762;28;20204;-47
2024/01/06 08:32:28;;;;;;;1.90;1.80;;;8.00;46.50;;;;;;5035298;28;20185;-46
2024/01/06 08:34:54;;;;;;;4.20;2.03;;;8.00;46.60;;;;;;5035081;28;20725;-48
2024/01/06 08:37:20;;;;;;;3.23;2.10;;;8.10;46.70;;;;;;5034975;28;20643;-47
2024/01/06 08:39:46;;;;;;;2.93;1.73;;;8.10;46.60;;;;;;5034444;28;20213;-50
2024/01/06 08:42:11;;;;;;;3.08;2.35;;;8.20;46.60;;;;;;5034822;28;20531;-51
2024/01/06 08:44:37;;;;;;;3.90;2.50;;;8.30;46.70;;;;;;5034835;28;20188;-46
2024/01/06 08:47:03;;;;;;;4.27;2.97;;;8.30;46.70;;;;;;5034883;28;20180;-48
2024/01/06 08:49:29;;;;;;;2.57;2.30;;;8.40;46.60;;;;;;5034694;28;20628;-53
2024/01/06 08:51:54;;;;;;;6.13;3.17;;;8.50;46.70;;;;;;5034762;28;20788;-47
2024/01/06 08:54:20;;;;;;;3.97;3.67;;;8.50;46.80;;;;;;5034675;28;20181;-47
2024/01/06 08:56:46;;;;;;;8.80;4.20;;;8.60;46.90;;;;;;5034647;28;20197;-52
2024/01/06 08:59:11;;;;;;;3.10;2.53;;;8.60;46.90;;;;;;5034077;28;20702;-51
2024/01/06 09:01:38;;;;;;;2.30;2.10;;;8.70;46.90;;;;;;5034415;28;20174;-46
2024/01/06 09:04:04;;;;;;;5.88;3.05;;;8.80;46.80;;;;;;5034632;28;20189;-46
2024/01/06 09:06:30;;;;;;;3.90;2.53;;;8.80;46.70;;;;;;5034436;28;20178;-52
2024/01/06 09:08:56;;;;;;;3.77;3.20;;;8.90;46.60;;;;;;5034268;28;20204;-46
2024/01/06 09:11:21;;;;;;;4.77;4.37;;;8.90;46.50;;;;;;5034421;28;20423;-47
2024/01/06 09:13:47;;;;;;;3.13;2.90;;;9.00;46.50;;;;;;5034119;28;20174;-52
2024/01/06 09:16:13;;;;;;;1.43;1.30;;;9.00;46.70;;;;;;5034381;28;20278;-46
2024/01/06 09:18:39;;;;;;;5.82;3.65;;;9.00;46.70;;;;;;5033717;28;20587;-48
2024/01/06 09:21:05;;;;;;;3.65;2.45;;;9.10;46.80;;;;;;5033956;28;20208;-51
2024/01/06 09:23:31;;;;;;;7.30;4.70;;;9.20;46.60;;;;;;5034202;28;20177;-51
2024/01/06 09:25:57;;;;;;;7.10;2.97;;;9.20;46.60;;;;;;5033927;28;20894;-46
2024/01/06 09:28:23;;;;;;;1.50;1.38;;;9.30;46.50;;;;;;5033923;28;20264;-47
2024/01/06 09:30:50;;;;;;;6.90;3.63;;;9.40;46.40;;;;;;5033767;28;20679;-46
2024/01/06 09:33:17;;;;;;;2.97;2.42;;;9.50;46.40;;;;;;5034053;28;20510;-48
2024/01/06 09:35:44;;;;;;;7.22;3.70;;;9.50;46.60;;;;;;5033864;28;20182;-52
2024/01/06 09:38:10;;;;;;;5.20;4.28;;;9.60;46.50;;;;;;5033956;28;20189;-46
2024/01/06 09:40:42;;;;;;;6.22;5.63;;;9.60;46.40;;;;;;5033377;28;20216;-46
2024/01/06 09:43:08;;;;;;;3.72;3.42;;;9.70;46.60;;;;;;5033668;28;20276;-54
2024/01/06 09:45:34;;;;;;;6.40;1.90;;;9.80;46.60;;;;;;5033772;28;20205;-46
2024/01/06 09:48:08;;;;;;;10.37;4.37;;;9.80;46.40;;;;;;5033583;28;20932;-51
2024/01/06 09:50:34;;;;;;;7.65;4.05;;;9.80;46.30;;;;;;5033382;28;20197;-46
2024/01/06 09:53:05;;;;;;;3.20;2.90;;;9.90;46.40;;;;;;5033431;28;20188;-46
2024/01/06 09:55:31;;;;;;;3.30;1.95;;;9.90;46.40;;;;;;5033420;28;20508;-53
2024/01/06 09:57:57;;;;;;;4.70;3.00;;;10.00;46.40;;;;;;5033382;28;20258;-46
2024/01/06 10:00:23;;;;;;;14.73;4.60;;;10.00;46.40;;;;;;5033140;28;20206;-51
2024/01/06 10:02:51;;;;;;;9.83;3.90;;;10.10;46.50;;;;;;5015586;28;20425;-47
2024/01/06 10:05:17;;;;;;;3.63;2.30;;;10.20;46.30;;;;;;5033214;28;20413;-45
2024/01/06 10:07:47;;;;;;;8.98;3.13;;;10.40;46.50;;;;;;5033240;28;20181;-52
2024/01/06 10:10:14;;;;;;;8.90;5.80;;;10.60;46.50;;;;;;5032944;28;20206;-45
2024/01/06 10:12:41;;;;;;;21.63;5.25;;;10.80;46.30;;;;;;5033144;28;20227;-49
2024/01/06 10:15:08;;;;;;;7.90;4.15;;;10.90;46.00;;;;;;5032934;28;20185;-50
2024/01/06 10:17:38;;;;;;;10.05;4.65;;;10.90;45.80;;;;;;5033186;28;20221;-47
2024/01/06 10:20:10;;;;;;;5.60;3.25;;;11.00;45.70;;;;;;5032707;28;20206;-47
2024/01/06 10:22:37;;;;;;;9.48;2.30;;;10.90;45.60;;;;;;5032913;28;20184;-47
2024/01/06 10:25:06;;;;;;;6.47;5.90;;;10.90;45.70;;;;;;5032766;28;20177;-47
2024/01/06 10:27:37;;;;;;;8.60;3.72;;;10.90;45.80;;;;;;5032935;28;20644;-48
2024/01/06 10:30:04;;;;;;;3.90;2.63;;;10.80;45.80;;;;;;5031533;28;20197;-49
2024/01/06 10:32:33;;;;;;;16.40;5.22;;;10.80;45.80;;;;;;5032667;28;20186;-47
2024/01/06 10:35:03;;;;;;;3.30;3.00;;;10.80;45.90;;;;;;5032597;28;20533;-50
2024/01/06 10:37:30;;;;;;;7.60;4.70;;;10.80;45.80;;;;;;5032738;28;20189;-49
2024/01/06 10:40:07;;;;;;;6.78;4.88;;;10.80;45.80;;;;;;5032151;28;20695;-46
2024/01/06 10:42:33;;;;;;;4.82;3.58;;;10.80;45.80;;;;;;5032552;28;20707;-46
2024/01/06 10:45:00;;;;;;;8.13;5.82;;;10.80;45.80;;;;;;5032555;28;20228;-46
2024/01/06 10:47:30;;;;;;;8.23;4.40;;;10.80;45.80;;;;;;5032643;28;20638;-48
2024/01/06 10:50:00;;;;;;;5.10;3.63;;;10.90;45.90;;;;;;5032605;28;20239;-51
2024/01/06 10:52:27;;;;;;;8.48;5.03;;;10.90;45.90;;;;;;5033047;28;20575;-46
2024/01/06 10:54:55;;;;;;;6.65;2.03;;;11.00;45.80;;;;;;5032806;28;20178;-47
2024/01/06 10:57:21;;;;;;;3.65;3.33;;;11.00;45.90;;;;;;5029080;28;20186;-50
2024/01/06 10:59:51;;;;;;;4.03;3.70;;;11.10;46.10;;;;;;5012245;28;20241;-47
2024/01/06 11:02:17;;;;;;;5.38;4.93;;;11.20;45.80;;;;;;5012379;28;20181;-48
2024/01/06 11:04:47;;;;;;;3.67;2.83;;;11.30;45.40;;;;;;5012555;28;20179;-52
2024/01/06 11:07:19;;;;;;;3.97;3.55;;;11.30;45.10;;;;;;5012527;28;20181;-45
2024/01/06 11:10:02;;;;;;;23.20;5.72;;;11.30;45.10;;;;;;5012358;28;20198;-46
2024/01/06 11:12:28;;;;;;;2.80;2.60;;;11.30;45.10;;;;;;5012345;28;20202;-45
2024/01/06 11:14:54;;;;;;;13.65;4.15;;;11.30;45.30;;;;;;5012374;28;20185;-46
2024/01/06 11:17:58;;;;;;;4.50;1.92;;;11.30;45.50;;;;;;5004478;28;20174;-48
2024/01/06 11:20:26;;;;;;;14.10;5.28;;;11.40;45.30;;;;;;5011998;28;20201;-51
2024/01/06 11:22:52;;;;;;;6.85;3.60;;;11.40;45.20;;;;;;5012159;28;20183;-45
2024/01/06 11:25:20;;;;;;;6.10;3.50;;;11.40;44.70;;;;;;5012338;28;20204;-47
2024/01/06 11:27:48;;;;;;;4.90;3.55;;;11.30;44.90;;;;;;5012348;28;20166;-49
2024/01/06 11:30:28;;;;;;;6.57;3.50;;;11.30;44.80;;;;;;5012043;28;20210;-45
2024/01/06 11:32:58;;;;;;;4.53;3.38;;;11.30;45.00;;;;;;5012127;28;20935;-48
2024/01/06 11:35:27;;;;;;;3.83;2.40;;;11.10;45.00;;;;;;5012135;28;20194;-45
2024/01/06 11:37:55;;;;;;;11.68;3.45;;;11.00;44.90;;;;;;5012338;28;20178;-45
2024/01/06 11:40:21;;;;;;;4.05;2.63;;;11.00;45.40;;;;;;5006996;28;20221;-49
2024/01/06 11:42:48;;;;;;;3.43;2.43;;;10.90;45.40;;;;;;5031796;28;20174;-48
2024/01/06 11:45:17;;;;;;;3.85;2.53;;;10.90;45.70;;;;;;5014408;28;20177;-44
2024/01/06 11:47:48;;;;;;;5.60;3.17;;;10.90;45.80;;;;;;5031760;28;20304;-50
2024/01/06 11:50:15;;;;;;;4.90;2.63;;;10.80;45.70;;;;;;5031405;28;20193;-49
2024/01/06 11:52:41;;;;;;;4.90;3.42;;;10.80;46.00;;;;;;5031640;28;20182;-45
2024/01/06 11:55:10;;;;;;;7.57;4.70;;;10.90;45.90;;;;;;5004194;28;20663;-48
2024/01/06 11:57:36;;;;;;;5.85;4.22;;;10.90;45.80;;;;;;5012129;28;20410;-49
2024/01/06 12:00:04;;;;;;;21.37;9.23;;;10.90;45.80;;;;;;5011621;28;20269;-45
2024/01/06 12:02:29;;;;;;;8.60;4.00;;;10.80;45.80;;;;;;5011793;28;20183;-45
2024/01/06 12:04:55;;;;;;;4.83;4.37;;;10.90;45.80;;;;;;5012005;28;20190;-48
2024/01/06 12:07:22;;;;;;;5.17;3.13;;;10.90;45.80;;;;;;5003804;28;20541;-52
2024/01/06 12:09:48;;;;;;;3.08;2.60;;;10.90;45.80;;;;;;5011640;28;20194;-47
2024/01/06 12:12:18;;;;;;;5.50;3.53;;;11.00;45.70;;;;;;5011765;28;20229;-49
2024/01/06 12:14:45;;;;;;;3.58;2.30;;;11.00;45.70;;;;;;5011734;28;20174;-46
2024/01/06 12:17:13;;;;;;;4.72;3.15;;;11.00;45.60;;;;;;5011645;28;20794;-44
2024/01/06 12:19:41;;;;;;;5.43;4.18;;;11.10;45.50;;;;;;5011598;28;20202;-51
2024/01/06 12:22:15;;;;;;;7.53;2.88;;;11.00;45.40;;;;;;5011563;28;20212;-46
2024/01/06 12:24:44;;;;;;;6.43;5.80;;;11.00;45.50;;;;;;5011775;28;20198;-47
2024/01/06 12:27:11;;;;;;;4.38;3.92;;;10.90;45.60;;;;;;5011920;28;20601;-50
2024/01/06 12:29:43;;;;;;;3.03;2.72;;;10.90;45.80;;;;;;5011380;28;20256;-46
2024/01/06 12:32:13;;;;;;;6.88;6.18;;;10.90;45.70;;;;;;5011552;28;20210;-53
2024/01/06 12:34:39;;;;;;;14.35;5.03;;;10.90;45.80;;;;;;5011648;28;20179;-50
2024/01/06 12:37:07;;;;;;;4.40;3.30;;;10.90;45.80;;;;;;5012616;28;20240;-45
2024/01/06 12:39:33;;;;;;;9.32;2.78;;;10.90;45.60;;;;;;5030989;28;20216;-47
2024/01/06 12:42:00;;;;;;;7.90;3.43;;;10.80;45.40;;;;;;5014425;28;20637;-49
2024/01/06 12:44:32;;;;;;;8.30;4.22;;;10.70;45.50;;;;;;5011753;28;20186;-47
2024/01/06 12:46:58;;;;;;;4.20;2.97;;;10.60;45.50;;;;;;5010439;28;20542;-47
2024/01/06 12:49:24;;;;;;;1.90;1.70;;;10.60;45.60;;;;;;5011371;28;20187;-52
2024/01/06 12:51:50;;;;;;;3.58;3.00;;;10.60;45.50;;;;;;5027045;28;20174;-52